WXM80 ListenWXM80 Stop

You find our weather info also at:

UK Metoffice

WeatherCloud

Weather Underground

Northeastern Weather Network

AWEKAS

Citizen Weather Observer Program (CWOP)

HAMweather, WeatherForYou, PWS Weather


Weather Underground History page Text

Daily Summary for July 14, 2017 Units:  Metric    English   Both
« Previous Day
Next Day »
Daily Weekly Monthly Yearly Custom
  High: Low: Average:
Temperature: 20.4 °C 18 °C 19.3 °C
Dew Point: 19.7 °C 17 °C 18.5 °C
Humidity: 98 % 93 % 96 %
Wind Speed: 4.3 km/h 0 km/h 1.3 km/h
Wind Gust: 9.3 km/h - -
Wind:- - East
Pressure: 1018.2 hPa 1013.1 hPa -
Precipitation: 9.65 mm    
Historical Graphs
 
 
Tabular Data for July 14, 2017
Time Temperature Dew Point Pressure Wind Wind Speed Wind Gust Humidity Rainfall Rate (Hourly)
00:04 20.4 °C 19.4 °C 1016.1 hPa East 3.4 km/h 5.6 km/h 94 % 0 mm
00:09 20.3 °C 19.3 °C 1016.1 hPa East 3.7 km/h 5.6 km/h 94 % 0 mm
00:14 20.3 °C 19.3 °C 1016.1 hPa East 4.2 km/h 7.4 km/h 94 % 0 mm
00:19 20.2 °C 19.2 °C 1016.1 hPa East 3.1 km/h 5.6 km/h 94 % 0 mm
00:24 20.2 °C 19.2 °C 1016.1 hPa ESE 3.7 km/h 5.6 km/h 94 % 0 mm
00:29 20.1 °C 19.1 °C 1016.1 hPa East 4.2 km/h 7.4 km/h 94 % 0 mm
00:34 20.1 °C 19.1 °C 1016.1 hPa East 2.9 km/h 5.6 km/h 94 % 0 mm
00:39 20 °C 19 °C 1015.8 hPa East 3.9 km/h 5.6 km/h 94 % 0 mm
00:41 20 °C 19 °C 1015.8 hPa ESE 2.4 km/h 5.6 km/h 94 % 0 mm
00:46 19.9 °C 18.9 °C 1015.8 hPa East 3.2 km/h 7.4 km/h 94 % 0 mm
00:51 19.8 °C 18.8 °C 1015.8 hPa East 3.5 km/h 7.4 km/h 94 % 0 mm
00:56 19.8 °C 18.8 °C 1015.8 hPa ESE 1.6 km/h 5.6 km/h 94 % 0 mm
01:01 19.6 °C 18.6 °C 1015.8 hPa ESE 3.4 km/h 5.6 km/h 94 % 0 mm
01:06 19.5 °C 18.5 °C 1015.8 hPa East 3.9 km/h 5.6 km/h 94 % 0 mm
01:11 19.4 °C 18.4 °C 1015.8 hPa East 2.9 km/h 5.6 km/h 94 % 0 mm
01:16 19.4 °C 18.4 °C 1015.8 hPa East 2.9 km/h 5.6 km/h 94 % 0 mm
01:21 19.3 °C 18.3 °C 1015.8 hPa East 3.5 km/h 5.6 km/h 94 % 0 mm
01:26 19.2 °C 18.2 °C 1015.8 hPa East 2.3 km/h 3.7 km/h 94 % 0 mm
01:31 19.2 °C 18.2 °C 1015.8 hPa East 3.1 km/h 5.6 km/h 94 % 0 mm
01:36 19.2 °C 18.2 °C 1015.8 hPa East 3.1 km/h 5.6 km/h 94 % 0 mm
01:41 19.2 °C 18.2 °C 1015.8 hPa ESE 1.9 km/h 5.6 km/h 94 % 0 mm
01:46 19.2 °C 18.2 °C 1015.8 hPa ESE 1.9 km/h 3.7 km/h 94 % 0 mm
01:51 19.2 °C 18.2 °C 1015.8 hPa East 2.1 km/h 5.6 km/h 94 % 0 mm
01:57 19.1 °C 18.1 °C 1016.1 hPa East 0.8 km/h 3.7 km/h 94 % 0 mm
02:01 19.1 °C 18.1 °C 1016.1 hPa East 1.6 km/h 3.7 km/h 94 % 0 mm
02:07 19.1 °C 18.1 °C 1016.1 hPa East 1.9 km/h 5.6 km/h 94 % 0 mm
02:12 19.1 °C 18.1 °C 1016.1 hPa East 2.4 km/h 5.6 km/h 94 % 0 mm
02:17 19 °C 18 °C 1016.1 hPa East 2.7 km/h 5.6 km/h 94 % 0 mm
02:22 18.9 °C 17.9 °C 1015.8 hPa ESE 2.9 km/h 5.6 km/h 94 % 0 mm
02:27 18.9 °C 17.9 °C 1016.1 hPa East 1.6 km/h 3.7 km/h 94 % 0 mm
02:32 18.9 °C 17.9 °C 1016.1 hPa East 2.4 km/h 5.6 km/h 94 % 0 mm
02:37 18.9 °C 17.7 °C 1016.1 hPa ESE 1.9 km/h 3.7 km/h 93 % 0 mm
02:42 18.8 °C 17.7 °C 1016.1 hPa ESE 0.5 km/h 1.9 km/h 93 % 0 mm
02:47 18.8 °C 17.6 °C 1016.1 hPa ESE 1.6 km/h 3.7 km/h 93 % 0 mm
02:52 18.8 °C 17.6 °C 1016.1 hPa East 1.9 km/h 4.8 km/h 93 % 0 mm
02:57 18.8 °C 17.6 °C 1016.5 hPa ESE 2.3 km/h 5.6 km/h 93 % 0 mm
03:02 18.7 °C 17.6 °C 1016.5 hPa ESE 1.3 km/h 5.6 km/h 93 % 0 mm
03:07 18.7 °C 17.6 °C 1016.5 hPa ESE 1 km/h 3.7 km/h 93 % 0 mm
03:12 18.7 °C 17.6 °C 1016.5 hPa ESE 1.1 km/h 3.7 km/h 93 % 0 mm
03:18 18.7 °C 17.6 °C 1016.5 hPa ENE 2.6 km/h 5.6 km/h 93 % 0 mm
03:23 18.7 °C 17.5 °C 1016.5 hPa ENE 3.5 km/h 7.4 km/h 93 % 0 mm
03:28 18.7 °C 17.5 °C 1016.5 hPa ENE 2.7 km/h 5.6 km/h 93 % 0 mm
03:33 18.7 °C 17.5 °C 1016.5 hPa ENE 3.2 km/h 5.6 km/h 93 % 0 mm
03:38 18.6 °C 17.4 °C 1016.8 hPa East 2.7 km/h 5.6 km/h 93 % 0 mm
03:43 18.6 °C 17.4 °C 1016.8 hPa East 3.1 km/h 7.4 km/h 93 % 0 mm
03:48 18.6 °C 17.4 °C 1016.5 hPa East 4 km/h 5.6 km/h 93 % 0 mm
03:53 18.6 °C 17.4 °C 1016.5 hPa East 2.3 km/h 3.7 km/h 93 % 0 mm
03:58 18.4 °C 17.3 °C 1016.5 hPa ESE 2.9 km/h 5.6 km/h 93 % 0 mm
04:03 18.4 °C 17.3 °C 1016.5 hPa East 3.2 km/h 5.6 km/h 93 % 0 mm
04:08 18.4 °C 17.3 °C 1016.5 hPa East 3.4 km/h 5.6 km/h 93 % 0 mm
04:13 18.4 °C 17.3 °C 1016.5 hPa ENE 3.2 km/h 5.6 km/h 93 % 0 mm
04:18 18.4 °C 17.2 °C 1016.5 hPa ENE 1.8 km/h 3.7 km/h 93 % 0 mm
04:23 18.3 °C 17.2 °C 1016.5 hPa East 3.7 km/h 5.6 km/h 93 % 0 mm
04:28 18.3 °C 17.2 °C 1016.5 hPa East 2.7 km/h 5.6 km/h 93 % 0 mm
04:33 18.3 °C 17.2 °C 1016.5 hPa ENE 4 km/h 6.4 km/h 93 % 0 mm
04:38 18.3 °C 17.1 °C 1016.5 hPa East 2.3 km/h 5.6 km/h 93 % 0 mm
04:43 18.2 °C 17.1 °C 1016.5 hPa East 3.5 km/h 7.4 km/h 93 % 0 mm
04:48 18.2 °C 17.2 °C 1016.5 hPa ENE 3.9 km/h 6.4 km/h 94 % 0 mm
04:53 18.2 °C 17.1 °C 1016.5 hPa East 3.1 km/h 5.6 km/h 93 % 0 mm
04:59 18.2 °C 17.2 °C 1016.5 hPa East 1.8 km/h 4.8 km/h 94 % 0 mm
05:04 18.2 °C 17.2 °C 1016.5 hPa East 3.5 km/h 5.6 km/h 94 % 0 mm
05:09 18.2 °C 17.2 °C 1016.5 hPa East 3.7 km/h 5.6 km/h 94 % 0 mm
05:14 18.1 °C 17.1 °C 1016.5 hPa East 2.4 km/h 5.6 km/h 94 % 0 mm
05:19 18.1 °C 17.1 °C 1016.5 hPa ENE 4 km/h 7.4 km/h 94 % 0 mm
05:24 18.1 °C 17.1 °C 1016.5 hPa ENE 4 km/h 5.6 km/h 94 % 0 mm
05:29 18.1 °C 17.1 °C 1016.5 hPa ENE 3.2 km/h 5.6 km/h 94 % 0 mm
05:34 18 °C 17 °C 1016.5 hPa ENE 3.2 km/h 5.6 km/h 94 % 0 mm
05:39 18.1 °C 17.1 °C 1016.5 hPa East 3.7 km/h 5.6 km/h 94 % 0 mm
05:44 18 °C 17 °C 1016.8 hPa East 3.9 km/h 5.6 km/h 94 % 0 mm
05:49 18 °C 17 °C 1016.8 hPa ESE 2.9 km/h 4.8 km/h 94 % 0 mm
05:54 18 °C 17 °C 1017.2 hPa East 2.1 km/h 3.7 km/h 94 % 0 mm
05:59 18 °C 17 °C 1016.8 hPa ENE 2.7 km/h 5.6 km/h 94 % 0 mm
06:04 18 °C 17 °C 1016.8 hPa East 2.3 km/h 5.6 km/h 94 % 0 mm
06:09 18 °C 17 °C 1016.8 hPa East 2.4 km/h 3.7 km/h 94 % 0 mm
06:14 18 °C 17 °C 1017.2 hPa ENE 1.4 km/h 3.7 km/h 94 % 0 mm
06:19 18 °C 17 °C 1017.2 hPa East 0.5 km/h 3.7 km/h 94 % 0 mm
06:24 18 °C 17 °C 1017.2 hPa East 1.6 km/h 3.7 km/h 94 % 0 mm
06:29 18 °C 17 °C 1017.2 hPa East 3.1 km/h 7.4 km/h 94 % 0 mm
06:34 18 °C 17 °C 1017.2 hPa East 2.7 km/h 3.7 km/h 94 % 0 mm
06:39 18 °C 17 °C 1017.2 hPa ENE 1.4 km/h 7.4 km/h 94 % 0 mm
06:44 18 °C 17 °C 1017.2 hPa East 1.9 km/h 3.7 km/h 94 % 0 mm
06:49 18 °C 17 °C 1017.2 hPa ENE 1.8 km/h 5.6 km/h 94 % 0 mm
06:54 18 °C 17 °C 1017.2 hPa East 1.4 km/h 3.7 km/h 94 % 0 mm
07:00 18.1 °C 17.1 °C 1017.2 hPa East 1.9 km/h 5.6 km/h 94 % 0 mm
07:05 18.1 °C 17.1 °C 1017.2 hPa ENE 1.6 km/h 3.7 km/h 94 % 0 mm
07:10 18.1 °C 17.2 °C 1017.2 hPa ENE 0.5 km/h 3.7 km/h 95 % 0 mm
07:15 18.1 °C 17.2 °C 1017.5 hPa ENE 0.6 km/h 1.9 km/h 95 % 0 mm
07:20 18.1 °C 17.2 °C 1017.5 hPa ENE 0.3 km/h 1.9 km/h 95 % 0 mm
07:25 18.1 °C 17.3 °C 1017.5 hPa ENE 0.6 km/h 1.9 km/h 95 % 0 mm
07:30 18.1 °C 17.2 °C 1017.8 hPa Calm   1.9 km/h 95 % 0 mm
07:35 18.1 °C 17.2 °C 1017.8 hPa East 0.2 km/h 1.9 km/h 95 % 0 mm
07:40 18.1 °C 17.2 °C 1017.8 hPa East 1.9 km/h 3.7 km/h 95 % 0 mm
07:45 18.1 °C 17.2 °C 1018.2 hPa East 0.2 km/h 1.9 km/h 95 % 0.25 mm
07:50 18.1 °C 17.2 °C 1017.8 hPa NE 1.8 km/h 3.7 km/h 95 % 0.25 mm
07:55 18.1 °C 17.2 °C 1017.8 hPa ENE 1.3 km/h 5.6 km/h 95 % 0.25 mm
08:00 18.1 °C 17.2 °C 1017.5 hPa ENE 1.9 km/h 3.7 km/h 95 % 0.25 mm
08:05 18.1 °C 17.2 °C 1017.8 hPa ENE 0.2 km/h 3.7 km/h 95 % 0.51 mm
08:10 18.1 °C 17.2 °C 1017.8 hPa ENE 1 km/h 3.2 km/h 95 % 0.51 mm
08:15 18.1 °C 17.3 °C 1017.8 hPa ENE 1 km/h 3.7 km/h 95 % 0.76 mm
08:20 18.1 °C 17.2 °C 1017.8 hPa ENE 1.6 km/h 3.7 km/h 95 % 0.76 mm
08:25 18.1 °C 17.2 °C 1017.8 hPa ENE 1.8 km/h 3.7 km/h 95 % 1.02 mm
08:30 18.1 °C 17.4 °C 1017.5 hPa East 2.1 km/h 3.7 km/h 96 % 1.02 mm
08:35 18.1 °C 17.4 °C 1017.5 hPa East 2.4 km/h 4.8 km/h 96 % 1.52 mm
08:40 18.1 °C 17.4 °C 1017.5 hPa East 1.6 km/h 3.7 km/h 96 % 1.52 mm
08:45 18.1 °C 17.4 °C 1017.5 hPa East 2.6 km/h 3.7 km/h 96 % 1.52 mm
08:50 18.1 °C 17.4 °C 1017.2 hPa East 2.9 km/h 3.7 km/h 96 % 1.78 mm
08:55 18.2 °C 17.5 °C 1017.5 hPa East 1.9 km/h 3.7 km/h 96 % 1.78 mm
09:00 18.2 °C 17.5 °C 1017.2 hPa East 2.6 km/h 5.6 km/h 96 % 1.78 mm
09:05 18.2 °C 17.5 °C 1017.2 hPa East 2.3 km/h 3.7 km/h 96 % 1.78 mm
09:10 18.2 °C 17.5 °C 1017.2 hPa East 2.4 km/h 5.6 km/h 96 % 1.78 mm
09:13 18.2 °C 17.6 °C 1017.2 hPa East 1 km/h 3.7 km/h 96 % 1.78 mm
09:18 18.2 °C 17.6 °C 1017.2 hPa East 2.1 km/h 3.7 km/h 96 % 1.52 mm
09:23 18.2 °C 17.6 °C 1017.2 hPa East 1.1 km/h 3.7 km/h 96 % 1.27 mm
09:28 18.2 °C 17.6 °C 1017.5 hPa ENE 2.6 km/h 5.6 km/h 96 % 1.52 mm
09:33 18.2 °C 17.6 °C 1017.5 hPa ENE 1.4 km/h 3.7 km/h 96 % 1.27 mm
09:38 18.2 °C 17.5 °C 1017.5 hPa NE 2.6 km/h 5.6 km/h 96 % 1.27 mm
09:43 18.2 °C 17.5 °C 1017.5 hPa NE 0.3 km/h 1.9 km/h 96 % 1.02 mm
09:48 18.2 °C 17.7 °C 1017.5 hPa ENE 3.1 km/h 5.6 km/h 97 % 1.27 mm
09:53 18.1 °C 17.6 °C 1017.8 hPa NE 2.1 km/h 5.6 km/h 97 % 1.02 mm
09:58 18.1 °C 17.4 °C 1017.8 hPa NE 2.4 km/h 3.7 km/h 96 % 1.27 mm
10:00 18.1 °C 17.4 °C 1017.8 hPa NE 0.6 km/h 5.6 km/h 96 % 1.27 mm
10:05 18.1 °C 17.4 °C 1017.8 hPa Calm   5.6 km/h 96 % 1.27 mm
10:10 18.1 °C 17.6 °C 1017.8 hPa NE 0.5 km/h 3.7 km/h 97 % 1.52 mm
10:16 18.2 °C 17.7 °C 1017.8 hPa NE 0.5 km/h 1.9 km/h 97 % 1.52 mm
10:21 18.4 °C 17.9 °C 1017.5 hPa Calm   3.2 km/h 97 % 0 mm
10:26 18.6 °C 18.1 °C 1017.5 hPa NE 1.6 km/h 3.2 km/h 97 % 0 mm
10:31 18.8 °C 18.3 °C 1017.5 hPa Calm   3.2 km/h 97 % 0 mm
10:36 19 °C 18.7 °C 1017.5 hPa ENE 1.6 km/h 4.8 km/h 98 % 0.25 mm
10:41 19.1 °C 18.6 °C 1017.2 hPa East 1.6 km/h 3.2 km/h 97 % 0 mm
10:46 19.1 °C 18.6 °C 1017.5 hPa Calm   3.2 km/h 97 % 0 mm
10:51 19.1 °C 18.6 °C 1017.5 hPa Calm   1.9 km/h 97 % 1.78 mm
10:56 19.1 °C 18.6 °C 1017.5 hPa ENE 0.6 km/h 1.9 km/h 97 % 1.52 mm
11:01 19.2 °C 18.7 °C 1017.5 hPa ENE 0.2 km/h 1.9 km/h 97 % 1.78 mm
11:06 19.2 °C 18.7 °C 1017.5 hPa ENE 0.6 km/h 3.2 km/h 97 % 1.52 mm
11:11 19.2 °C 18.7 °C 1017.5 hPa ENE 0.2 km/h 1.9 km/h 97 % 1.27 mm
11:16 19.2 °C 18.7 °C 1017.2 hPa Calm   3.2 km/h 97 % 0 mm
11:21 19.3 °C 18.8 °C 1017.2 hPa Calm   1.6 km/h 97 % 0 mm
11:26 19.4 °C 18.9 °C 1017.2 hPa Calm   1.6 km/h 97 % 0 mm
11:31 19.5 °C 19 °C 1016.8 hPa Calm   3.2 km/h 97 % 0 mm
11:36 19.6 °C 19.1 °C 1016.5 hPa Calm   1.6 km/h 97 % 0 mm
11:41 19.6 °C 19.2 °C 1016.5 hPa Calm   4.8 km/h 97 % 0 mm
11:46 19.6 °C 19.1 °C 1016.5 hPa ESE 1.6 km/h 4.8 km/h 97 % 0 mm
11:56 19.7 °C 19.2 °C 1016.5 hPa Calm   1.6 km/h 97 % 0 mm
12:01 19.9 °C 19.4 °C 1016.5 hPa SE 0.2 km/h 3.7 km/h 97 % 0.76 mm
12:06 19.9 °C 19.5 °C 1016.5 hPa Calm   4.8 km/h 97 % 0 mm
12:11 20.1 °C 19.6 °C 1016.5 hPa Calm   1.6 km/h 97 % 0 mm
12:16 20 °C 19.5 °C 1016.5 hPa SSE 1.6 km/h 6.4 km/h 97 % 0 mm
12:21 20.2 °C 19.7 °C 1016.5 hPa SE 3.7 km/h 3.7 km/h 97 % 1.02 mm
12:26 20.2 °C 19.7 °C 1016.5 hPa SE 2.3 km/h 5.6 km/h 97 % 1.02 mm
12:31 20.2 °C 19.7 °C 1016.5 hPa SSE 1 km/h 5.6 km/h 97 % 0.76 mm
12:36 20.1 °C 19.4 °C 1016.5 hPa ESE 2.3 km/h 7.4 km/h 96 % 0.76 mm
12:41 20.1 °C 19.4 °C 1016.5 hPa Calm   1.9 km/h 96 % 1.02 mm
12:46 20.1 °C 19.4 °C 1016.5 hPa SE 1.6 km/h 7.4 km/h 96 % 0.76 mm
12:51 20 °C 19.2 °C 1016.5 hPa SE 3.4 km/h 5.6 km/h 95 % 0.76 mm
12:54 19.9 °C 19.1 °C 1016.5 hPa SE 4.3 km/h 9.3 km/h 95 % 0.76 mm
12:59 19.9 °C 19.1 °C 1016.5 hPa SE 0.2 km/h 1.9 km/h 95 % 0.76 mm
13:04 20 °C 19.2 °C 1016.5 hPa SE 0.2 km/h 5.6 km/h 95 % 0.76 mm
13:09 20 °C 19.2 °C 1016.5 hPa SE 0.2 km/h 5.6 km/h 95 % 0.76 mm
13:14 20.1 °C 19.2 °C 1016.5 hPa Calm     95 % 0.76 mm
13:19 20.1 °C 19.2 °C 1016.5 hPa Calm     95 % 0.76 mm
13:24 20.1 °C 19.3 °C 1016.5 hPa Calm   1.6 km/h 95 % 0.76 mm
13:29 20.2 °C 19.3 °C 1016.5 hPa Calm     95 % 0.76 mm
13:34 20.2 °C 19.4 °C 1016.5 hPa Calm     95 % 0.76 mm
13:39 20.3 °C 19.4 °C 1016.5 hPa East 1 km/h 3.7 km/h 95 % 0.76 mm
13:44 20.3 °C 19.4 °C 1016.5 hPa Calm   1.9 km/h 95 % 0.51 mm
13:49 20.3 °C 19.4 °C 1016.5 hPa Calm     95 % 0.76 mm
13:54 20.3 °C 19.5 °C 1016.5 hPa East 1.8 km/h 1.9 km/h 95 % 0.76 mm
13:59 20.3 °C 19.4 °C 1016.5 hPa Calm     95 % 0.76 mm
14:05 20.3 °C 19.3 °C 1016.5 hPa Calm   3.7 km/h 94 % 0.51 mm
14:10 20.3 °C 19.3 °C 1016.5 hPa Calm     94 % 0.51 mm
14:15 20.3 °C 19.3 °C 1016.5 hPa Calm     94 % 0.51 mm
14:20 20.3 °C 19.3 °C 1016.5 hPa Calm   1.9 km/h 94 % 0.76 mm
14:25 20.2 °C 19.2 °C 1016.5 hPa SE 1.3 km/h 3.7 km/h 94 % 0.51 mm
14:30 20.2 °C 19.2 °C 1016.5 hPa SE 0.6 km/h 3.7 km/h 94 % 0.51 mm
14:35 20.2 °C 19.2 °C 1016.5 hPa Calm     94 % 0.51 mm
14:40 20.2 °C 19.2 °C 1016.5 hPa Calm     94 % 0.51 mm
14:45 20.2 °C 19.2 °C 1016.5 hPa SE 0.2 km/h 1.9 km/h 94 % 0.76 mm
14:50 20.2 °C 19.2 °C 1016.5 hPa Calm     94 % 0.51 mm
14:55 20.2 °C 19.4 °C 1016.1 hPa Calm   3.7 km/h 95 % 0.51 mm
15:01 20.2 °C 19.4 °C 1016.1 hPa Calm     95 % 0.51 mm
15:06 20.2 °C 19.4 °C 1016.1 hPa Calm   1.6 km/h 95 % 0 mm
15:11 20.2 °C 19.4 °C 1016.1 hPa Calm   1.6 km/h 95 % 0 mm
15:16 20.2 °C 19.4 °C 1015.8 hPa Calm   1.6 km/h 95 % 0 mm
15:21 20.2 °C 19.4 °C 1015.8 hPa Calm   1.6 km/h 95 % 0 mm
15:26 20.2 °C 19.3 °C 1015.5 hPa SE 1.6 km/h 4.8 km/h 95 % 0 mm
15:31 20.2 °C 19.3 °C 1015.1 hPa Calm   1.6 km/h 95 % 0 mm
15:36 20.1 °C 19.3 °C 1015.1 hPa Calm   3.2 km/h 95 % 0 mm
15:40 20.1 °C 19.3 °C 1015.1 hPa Calm   6.4 km/h 95 % 0 mm
15:46 20.1 °C 19.3 °C 1015.1 hPa Calm   3.2 km/h 95 % 0 mm
15:51 20.2 °C 19.6 °C 1015.1 hPa Calm   1.6 km/h 96 % 0 mm
15:55 20.2 °C 19.6 °C 1015.1 hPa Calm   1.9 km/h 96 % 0.51 mm
16:00 20.2 °C 19.6 °C 1015.1 hPa Calm     96 % 0.51 mm
16:05 20.3 °C 19.6 °C 1015.5 hPa Calm     96 % 0.51 mm
16:10 20.3 °C 19.6 °C 1015.5 hPa Calm     96 % 0.25 mm
16:15 20.2 °C 19.6 °C 1015.5 hPa ENE 1 km/h 1.9 km/h 96 % 0.25 mm
16:20 20.2 °C 19.6 °C 1015.5 hPa Calm     96 % 0.25 mm
16:26 20.2 °C 19.5 °C 1015.5 hPa Calm   3.2 km/h 96 % 0 mm
16:31 20.1 °C 19.4 °C 1015.5 hPa Calm   1.6 km/h 96 % 0 mm
16:35 20.1 °C 19.4 °C 1014.8 hPa Calm   1.6 km/h 96 % 0 mm
16:40 20.2 °C 19.5 °C 1014.8 hPa Calm   1.6 km/h 96 % 0 mm
16:46 20.2 °C 19.5 °C 1014.8 hPa Calm   1.6 km/h 96 % 0 mm
16:50 20.1 °C 19.4 °C 1014.4 hPa NE 1 km/h 3.2 km/h 96 % 0.25 mm
16:55 20.1 °C 19.4 °C 1014.1 hPa ESE 1.4 km/h 3.7 km/h 96 % 0.25 mm
17:00 20.1 °C 19.4 °C 1013.8 hPa ESE 1 km/h 3.2 km/h 96 % 0.25 mm
17:05 20 °C 19.3 °C 1014.1 hPa ESE 1.3 km/h 1.9 km/h 96 % 0.25 mm
17:10 20 °C 19.3 °C 1014.4 hPa ESE 0.2 km/h 3.7 km/h 96 % 0.25 mm
17:15 20 °C 19.5 °C 1014.4 hPa Calm     97 % 0.25 mm
17:20 20 °C 19.3 °C 1014.8 hPa ESE 0.3 km/h 1.9 km/h 96 % 0.25 mm
17:25 20 °C 19.5 °C 1014.8 hPa Calm   3.7 km/h 97 % 0.51 mm
17:31 20 °C 19.5 °C 1014.8 hPa Calm     97 % 0 mm
17:35 20 °C 19.5 °C 1014.8 hPa ENE 3.2 km/h 8 km/h 97 % 0 mm
17:41 20 °C 19.5 °C 1014.8 hPa Calm   4.8 km/h 97 % 0 mm
17:46 20 °C 19.5 °C 1014.8 hPa Calm   6.4 km/h 97 % 0 mm
17:51 20 °C 19.5 °C 1014.8 hPa NE 1.6 km/h 6.4 km/h 97 % 0 mm
17:56 20 °C 19.5 °C 1015.1 hPa Calm   4.8 km/h 97 % 0 mm
18:01 20 °C 19.5 °C 1015.1 hPa Calm     97 % 0.25 mm
18:06 20 °C 19.5 °C 1015.1 hPa Calm   3.7 km/h 97 % 0.25 mm
18:11 20.1 °C 19.6 °C 1015.1 hPa Calm   1.9 km/h 97 % 0.25 mm
18:16 20.1 °C 19.6 °C 1014.8 hPa NE 1.3 km/h 3.7 km/h 97 % 0.25 mm
18:21 20.1 °C 19.6 °C 1014.8 hPa NE 0.2 km/h 1.9 km/h 97 % 0.51 mm
18:26 20.1 °C 19.6 °C 1014.4 hPa NE 1.6 km/h 3.7 km/h 97 % 0.25 mm
18:31 20.1 °C 19.6 °C 1014.8 hPa NE 1.6 km/h 3.7 km/h 97 % 0.25 mm
18:36 20.1 °C 19.6 °C 1014.8 hPa NE 0.5 km/h 3.7 km/h 97 % 0.25 mm
18:41 20.1 °C 19.6 °C 1014.8 hPa ENE 3.9 km/h 5.6 km/h 97 % 0.25 mm
18:46 20 °C 19.5 °C 1014.4 hPa ENE 0.2 km/h 1.9 km/h 97 % 0.25 mm
18:51 20.1 °C 19.6 °C 1014.8 hPa ENE 0.5 km/h 1.9 km/h 97 % 0.25 mm
18:56 20 °C 19.5 °C 1014.8 hPa ENE 1.1 km/h 1.9 km/h 97 % 0.25 mm
19:01 20 °C 19.5 °C 1014.8 hPa ENE 0.5 km/h 1.9 km/h 97 % 0.25 mm
19:06 20 °C 19.5 °C 1014.8 hPa ENE 0.3 km/h 1.9 km/h 97 % 0.25 mm
19:11 19.9 °C 19.4 °C 1014.4 hPa ENE 0.5 km/h 3.7 km/h 97 % 0.25 mm
19:16 19.9 °C 19.4 °C 1014.8 hPa Calm   1.9 km/h 97 % 0.51 mm
19:21 19.9 °C 19.4 °C 1014.8 hPa SE 1.1 km/h 5.6 km/h 97 % 0.25 mm
19:26 19.8 °C 19.3 °C 1014.8 hPa Calm   1.9 km/h 97 % 0.25 mm
19:31 19.8 °C 19.3 °C 1014.8 hPa SE 0.3 km/h 1.9 km/h 97 % 0.25 mm
19:36 19.8 °C 19.3 °C 1014.8 hPa Calm     97 % 0.25 mm
19:42 19.8 °C 19.3 °C 1014.8 hPa Calm   1.9 km/h 97 % 0.25 mm
19:47 19.8 °C 19.3 °C 1014.8 hPa ESE 3.2 km/h 5.6 km/h 97 % 0.25 mm
19:52 19.7 °C 19.2 °C 1014.4 hPa SE 0.8 km/h 5.6 km/h 97 % 0.25 mm
19:57 19.7 °C 19.2 °C 1014.4 hPa SE 1.3 km/h 4.8 km/h 97 % 0.25 mm
20:02 19.7 °C 19.2 °C 1014.4 hPa SE 0.2 km/h 1.9 km/h 97 % 0.25 mm
20:07 19.7 °C 19.2 °C 1014.4 hPa SSE 0.6 km/h 4.8 km/h 97 % 0.25 mm
20:12 19.6 °C 19.1 °C 1014.4 hPa SE 0.3 km/h 1.9 km/h 97 % 0.25 mm
20:17 19.6 °C 19.1 °C 1014.4 hPa Calm     97 % 0 mm
20:22 19.6 °C 19.1 °C 1014.4 hPa SE 1.8 km/h 4.8 km/h 97 % 0 mm
20:27 19.6 °C 19.1 °C 1014.4 hPa Calm   1.9 km/h 97 % 0.25 mm
20:32 19.6 °C 19.1 °C 1014.1 hPa SE 0.6 km/h 3.7 km/h 97 % 0.25 mm
20:37 19.5 °C 19 °C 1014.1 hPa SE 2.1 km/h 3.7 km/h 97 % 0.25 mm
20:42 19.5 °C 19 °C 1013.8 hPa SE 0.2 km/h 1.9 km/h 97 % 0.25 mm
20:47 19.4 °C 18.9 °C 1013.8 hPa ESE 1 km/h 5.6 km/h 97 % 0.25 mm
20:52 19.4 °C 18.9 °C 1013.8 hPa Calm   1.9 km/h 97 % 0.25 mm
20:57 19.4 °C 18.9 °C 1013.8 hPa SE 0.2 km/h 3.7 km/h 97 % 0.25 mm
21:02 19.4 °C 18.9 °C 1013.8 hPa SE 1.1 km/h 4.8 km/h 97 % 0.25 mm
21:07 19.4 °C 18.9 °C 1014.1 hPa SE 0.2 km/h 3.7 km/h 97 % 0.25 mm
21:12 19.3 °C 18.8 °C 1014.1 hPa Calm     97 % 0.25 mm
21:17 19.3 °C 18.8 °C 1014.1 hPa SSE 2.3 km/h 5.6 km/h 97 % 0.25 mm
21:22 19.3 °C 18.8 °C 1014.1 hPa Calm   3.7 km/h 97 % 0.25 mm
21:27 19.3 °C 18.8 °C 1014.1 hPa Calm     97 % 0 mm
21:33 19.3 °C 18.8 °C 1014.4 hPa Calm     97 % 0 mm
21:38 19.3 °C 18.8 °C 1014.4 hPa Calm   5.6 km/h 97 % 0 mm
21:43 19.3 °C 18.8 °C 1014.4 hPa Calm     97 % 0 mm
21:48 19.3 °C 18.8 °C 1014.4 hPa SE 0.5 km/h 5.6 km/h 97 % 0 mm
21:53 19.3 °C 18.8 °C 1014.4 hPa Calm   1.9 km/h 97 % 0 mm
21:58 19.3 °C 18.8 °C 1014.4 hPa SE 0.2 km/h 1.9 km/h 97 % 0 mm
22:03 19.3 °C 18.8 °C 1014.4 hPa SE 0.8 km/h 5.6 km/h 97 % 0 mm
22:08 19.3 °C 18.8 °C 1014.4 hPa SE 1.1 km/h 7.4 km/h 97 % 0 mm
22:13 19.3 °C 18.8 °C 1014.4 hPa Calm   1.9 km/h 97 % 0 mm
22:18 19.3 °C 18.8 °C 1014.4 hPa Calm     97 % 0 mm
22:23 19.3 °C 18.8 °C 1014.4 hPa Calm     97 % 0 mm
22:28 19.4 °C 18.9 °C 1014.4 hPa Calm     97 % 0 mm
22:33 19.4 °C 18.9 °C 1014.1 hPa Calm     97 % 0 mm
22:38 19.4 °C 18.9 °C 1014.1 hPa Calm     97 % 0 mm
22:43 19.4 °C 18.9 °C 1014.1 hPa Calm     97 % 0 mm
22:48 19.4 °C 18.9 °C 1014.1 hPa Calm     97 % 0 mm
22:53 19.4 °C 18.9 °C 1014.1 hPa Calm     97 % 0 mm
22:58 19.4 °C 18.9 °C 1014.1 hPa Calm     97 % 0 mm
23:03 19.4 °C 18.9 °C 1014.1 hPa Calm     97 % 0 mm
23:08 19.4 °C 18.9 °C 1014.1 hPa Calm     97 % 0 mm
23:13 19.4 °C 19.1 °C 1013.8 hPa Calm     98 % 0 mm
23:18 19.4 °C 19.1 °C 1013.8 hPa Calm     98 % 0 mm
23:23 19.4 °C 19.1 °C 1013.8 hPa Calm     98 % 0 mm
23:28 19.4 °C 19.1 °C 1013.8 hPa Calm     98 % 0 mm
23:33 19.5 °C 19.2 °C 1013.8 hPa Calm     98 % 0 mm
23:38 19.5 °C 19.2 °C 1013.8 hPa Calm     98 % 0 mm
23:43 19.4 °C 19.1 °C 1013.4 hPa Calm     98 % 0 mm
23:48 19.4 °C 19.1 °C 1013.4 hPa Calm   1.9 km/h 98 % 0 mm
23:53 19.4 °C 19.1 °C 1013.4 hPa Calm   1.9 km/h 98 % 0 mm
23:58 19.4 °C 19.1 °C 1013.1 hPa Calm     98 % 0 mm
Crab Meadow Weather
Compliments of Weather Underground - 3 mb

Script developed by  Jim McMurry - jmcmurry@mwt.net Adapted for the template by  Wim van der Kuil - Leuven-Template.eu

Temperature: You can tell the temperature by counting the clicks a cricket makes in 15 seconds and adding 37!